createdAt,value
2023-03-11T00:01:04.660Z,4.90
2023-03-11T00:11:00.567Z,4.70
2023-03-11T00:15:56.930Z,4.70
2023-03-11T00:20:50.271Z,4.70
2023-03-11T00:30:48.317Z,4.50
2023-03-11T00:35:43.172Z,4.50
2023-03-11T00:45:44.379Z,4.60
2023-03-11T00:55:39.875Z,4.50
2023-03-11T01:00:33.328Z,4.60
2023-03-11T01:05:30.915Z,4.60
2023-03-11T01:10:24.601Z,4.70
2023-03-11T01:15:23.492Z,4.60
2023-03-11T01:20:17.195Z,4.40
2023-03-11T01:25:14.921Z,4.40
2023-03-11T01:30:10.247Z,4.30
2023-03-11T01:35:05.233Z,4.40
2023-03-11T01:39:58.715Z,4.40
2023-03-11T01:44:52.138Z,4.40
2023-03-11T01:49:45.654Z,4.40
2023-03-11T01:54:43.038Z,4.40
2023-03-11T01:59:44.573Z,4.40
2023-03-11T02:09:46.397Z,4.40
2023-03-11T02:14:46.645Z,4.30
2023-03-11T02:19:59.312Z,4.30
2023-03-11T02:25:04.465Z,4.30
2023-03-11T02:30:01.755Z,4.40
2023-03-11T02:34:55.118Z,4.20
2023-03-11T02:39:51.504Z,4.20
2023-03-11T02:44:50.515Z,4.30
2023-03-11T02:49:45.698Z,4.30
2023-03-11T02:54:39.078Z,4.20
2023-03-11T02:59:32.442Z,4.10
2023-03-11T03:04:25.825Z,4.10
2023-03-11T03:09:20.611Z,4.00
2023-03-11T03:14:13.929Z,3.90
2023-03-11T03:19:07.258Z,4.00
2023-03-11T03:24:00.689Z,4.00
2023-03-11T03:28:55.468Z,4.00
2023-03-11T03:33:48.765Z,3.90
2023-03-11T03:38:42.567Z,3.90
2023-03-11T03:43:35.910Z,3.90
2023-03-11T03:48:30.878Z,3.80
2023-03-11T03:53:24.414Z,3.90
2023-03-11T03:58:17.804Z,3.90
2023-03-11T04:03:11.282Z,3.90
2023-03-11T04:08:06.379Z,3.90
2023-03-11T04:13:02.163Z,3.90
2023-03-11T04:17:55.556Z,3.80
2023-03-11T04:22:48.843Z,3.70
2023-03-11T04:27:46.118Z,3.40
2023-03-11T04:32:39.562Z,3.40
2023-03-11T04:37:33.754Z,3.40
2023-03-11T04:42:28.074Z,3.50
2023-03-11T04:47:22.765Z,3.50
2023-03-11T04:52:16.077Z,3.70
2023-03-11T04:57:09.786Z,3.60
2023-03-11T05:02:03.095Z,3.60
2023-03-11T05:06:57.873Z,3.60
2023-03-11T05:11:51.234Z,3.50
2023-03-11T05:16:44.595Z,3.50
2023-03-11T05:21:37.963Z,3.60
2023-03-11T05:26:32.680Z,3.40
2023-03-11T05:31:26.121Z,3.30
2023-03-11T05:36:19.389Z,3.20
2023-03-11T05:41:12.793Z,3.00
2023-03-11T05:46:07.798Z,2.90
2023-03-11T05:51:01.256Z,2.90
2023-03-11T05:55:58.820Z,2.80
2023-03-11T06:00:52.250Z,2.90
2023-03-11T06:05:52.803Z,2.70
2023-03-11T06:10:48.558Z,2.80
2023-03-11T06:15:42.274Z,2.90
2023-03-11T06:20:37.858Z,2.90
2023-03-11T06:25:32.735Z,2.90
2023-03-11T06:30:26.482Z,2.80
2023-03-11T06:35:20.039Z,2.70
2023-03-11T06:40:14.291Z,2.60
2023-03-11T06:45:10.753Z,2.60
2023-03-11T06:50:06.724Z,2.70
2023-03-11T06:55:00.722Z,2.70
2023-03-11T06:59:54.601Z,2.80
2023-03-11T07:04:50.955Z,2.70
2023-03-11T07:09:44.489Z,2.70
2023-03-11T07:14:37.907Z,2.80
2023-03-11T07:19:31.325Z,2.70
2023-03-11T07:24:26.389Z,2.60
2023-03-11T07:29:20.343Z,2.60
2023-03-11T07:34:15.315Z,2.60
2023-03-11T07:39:09.539Z,2.60
2023-03-11T07:44:07.121Z,2.70
2023-03-11T07:49:04.038Z,2.70
2023-03-11T07:53:59.859Z,2.90
2023-03-11T07:58:54.748Z,3.00
2023-03-11T08:03:53.113Z,3.00
2023-03-11T08:08:46.781Z,2.90
2023-03-11T08:13:40.271Z,2.90
2023-03-11T08:18:34.622Z,3.00
2023-03-11T08:23:29.425Z,2.90
2023-03-11T08:28:22.841Z,3.00
2023-03-11T08:33:16.217Z,3.00
2023-03-11T08:38:09.515Z,3.00
2023-03-11T08:48:08.210Z,2.90
2023-03-11T08:53:03.285Z,2.90
2023-03-11T08:57:57.283Z,2.90
2023-03-11T09:02:50.667Z,3.00
2023-03-11T09:07:45.544Z,3.10
2023-03-11T09:12:38.870Z,3.00
2023-03-11T09:17:32.163Z,3.30
2023-03-11T09:22:25.552Z,3.40
2023-03-11T09:27:20.590Z,3.50
2023-03-11T09:32:16.003Z,3.40
2023-03-11T09:37:09.880Z,3.30
2023-03-11T09:42:18.217Z,3.40
2023-03-11T09:47:46.476Z,3.40
2023-03-11T09:52:47.437Z,3.70
2023-03-11T09:57:40.849Z,4.00
2023-03-11T10:02:39.301Z,4.00
2023-03-11T10:07:40.723Z,4.20
2023-03-11T10:12:49.047Z,4.40
2023-03-11T10:17:58.859Z,4.30
2023-03-11T10:28:08.609Z,3.90
2023-03-11T10:33:10.944Z,4.10
2023-03-11T10:38:14.255Z,4.30
2023-03-11T10:43:15.609Z,4.60
2023-03-11T10:48:16.335Z,4.90
2023-03-11T10:53:14.458Z,5.10
2023-03-11T10:58:14.702Z,5.40
2023-03-11T11:13:24.303Z,5.20
2023-03-11T11:18:22.132Z,5.10
2023-03-11T11:23:28.637Z,5.40
2023-03-11T11:33:34.308Z,5.60
2023-03-11T11:38:31.410Z,6.00
2023-03-11T11:43:42.672Z,6.10
2023-03-11T11:48:48.622Z,6.10
2023-03-11T11:53:47.662Z,5.80
2023-03-11T11:58:42.316Z,5.80
2023-03-11T12:04:18.860Z,5.90
2023-03-11T12:09:27.163Z,5.80
2023-03-11T12:14:29.462Z,5.80
2023-03-11T12:19:38.392Z,6.00
2023-03-11T12:24:58.708Z,6.00
2023-03-11T12:29:59.120Z,5.70
2023-03-11T12:34:53.982Z,5.80
2023-03-11T12:39:47.414Z,5.90
2023-03-11T12:44:42.090Z,6.10
2023-03-11T12:49:37.624Z,6.30
2023-03-11T12:54:35.603Z,6.20
2023-03-11T13:00:12.302Z,6.10
2023-03-11T13:05:21.873Z,6.10
2023-03-11T13:10:28.294Z,6.20
2023-03-11T13:15:35.594Z,6.40
2023-03-11T13:20:56.150Z,6.60
2023-03-11T13:26:33.205Z,6.70
2023-03-11T13:31:45.335Z,6.60
2023-03-11T13:37:04.628Z,6.50
2023-03-11T13:41:59.434Z,6.60
2023-03-11T13:47:01.104Z,6.50
2023-03-11T13:51:57.451Z,6.50
2023-03-11T13:56:57.001Z,6.50
2023-03-11T14:01:52.715Z,6.60
2023-03-11T14:06:47.593Z,6.60
2023-03-11T14:11:43.705Z,6.40
2023-03-11T14:16:44.331Z,6.20
2023-03-11T14:21:44.044Z,6.00
2023-03-11T14:26:37.647Z,5.90
2023-03-11T14:31:34.810Z,5.80
2023-03-11T14:36:28.477Z,5.80
2023-03-11T14:41:23.301Z,5.80
2023-03-11T14:46:30.264Z,5.80
2023-03-11T14:51:31.506Z,5.70
2023-03-11T14:56:28.646Z,5.70
2023-03-11T15:01:27.277Z,5.80
2023-03-11T15:06:25.895Z,6.00
2023-03-11T15:11:28.610Z,6.00
2023-03-11T15:16:39.916Z,5.90
2023-03-11T15:21:33.454Z,6.00
2023-03-11T15:26:31.217Z,6.00
2023-03-11T15:31:32.599Z,6.10
2023-03-11T15:36:35.591Z,5.90
2023-03-11T15:41:30.354Z,5.90
2023-03-11T15:46:23.690Z,5.90
2023-03-11T15:51:21.542Z,5.80
2023-03-11T15:56:25.982Z,5.70
2023-03-11T16:01:24.444Z,5.60
2023-03-11T16:06:17.762Z,5.60
2023-03-11T16:11:13.531Z,5.70
2023-03-11T16:16:08.002Z,5.50
2023-03-11T16:21:09.994Z,5.50
2023-03-11T16:26:06.486Z,5.40
2023-03-11T16:30:59.950Z,5.50
2023-03-11T16:35:53.475Z,5.40
2023-03-11T16:40:58.945Z,5.20
2023-03-11T16:45:53.927Z,5.10
2023-03-11T16:50:47.275Z,5.00
2023-03-11T16:55:40.628Z,4.80
2023-03-11T17:00:35.595Z,4.60
2023-03-11T17:05:29.004Z,4.70
2023-03-11T17:10:24.571Z,4.60
2023-03-11T17:15:18.096Z,4.70
2023-03-11T17:20:14.489Z,4.60
2023-03-11T17:25:09.318Z,4.60
2023-03-11T17:30:05.368Z,4.60
2023-03-11T17:34:59.028Z,4.60
2023-03-11T17:39:54.683Z,4.60
2023-03-11T17:44:51.816Z,4.70
2023-03-11T17:49:47.949Z,4.60
2023-03-11T17:54:41.283Z,4.70
2023-03-11T17:59:36.148Z,4.60
2023-03-11T18:04:30.121Z,4.50
2023-03-11T18:09:23.878Z,4.50
2023-03-11T18:14:17.580Z,4.50
2023-03-11T18:19:12.406Z,4.60
2023-03-11T18:24:06.721Z,4.60
2023-03-11T18:29:01.554Z,4.50
2023-03-11T18:33:57.971Z,4.40
2023-03-11T18:38:54.934Z,4.30
2023-03-11T18:43:48.722Z,4.20
2023-03-11T18:48:43.211Z,4.30
2023-03-11T18:53:37.079Z,4.30
2023-03-11T18:58:31.903Z,4.30
2023-03-11T19:03:25.310Z,4.20
2023-03-11T19:08:18.770Z,4.20
2023-03-11T19:13:12.411Z,4.20
2023-03-11T19:18:07.648Z,4.20
2023-03-11T19:23:01.142Z,4.30
2023-03-11T19:27:54.900Z,4.20
2023-03-11T19:32:52.097Z,4.20
2023-03-11T19:37:46.917Z,4.20
2023-03-11T19:42:40.382Z,4.20
2023-03-11T19:47:33.870Z,4.10
2023-03-11T19:52:27.244Z,4.00
2023-03-11T19:57:22.048Z,4.00
2023-03-11T20:02:16.805Z,4.10
2023-03-11T20:07:10.310Z,4.10
2023-03-11T20:12:03.655Z,4.10
2023-03-11T20:16:58.371Z,4.00
2023-03-11T20:21:51.820Z,4.00
2023-03-11T20:26:45.627Z,3.90
2023-03-11T20:31:39.317Z,3.90
2023-03-11T20:36:35.382Z,4.00
2023-03-11T20:41:29.810Z,4.00
2023-03-11T20:46:23.692Z,3.80
2023-03-11T20:51:20.828Z,3.80
2023-03-11T20:56:19.660Z,3.80
2023-03-11T21:01:15.751Z,3.80
2023-03-11T21:06:17.271Z,3.70
2023-03-11T21:11:10.686Z,3.80
2023-03-11T21:16:07.110Z,3.70
2023-03-11T21:21:00.606Z,3.70
2023-03-11T21:26:00.152Z,3.70
2023-03-11T21:31:00.629Z,3.70
2023-03-11T21:35:57.091Z,3.70
2023-03-11T21:40:50.631Z,3.80
2023-03-11T21:45:44.152Z,3.80
2023-03-11T21:50:39.810Z,3.80
2023-03-11T21:55:35.592Z,3.80
2023-03-11T22:00:29.097Z,3.80
2023-03-11T22:05:22.613Z,3.70
2023-03-11T22:10:16.066Z,3.70
2023-03-11T22:15:12.420Z,3.80
2023-03-11T22:20:08.121Z,3.80
2023-03-11T22:25:01.387Z,3.80
2023-03-11T22:29:54.712Z,3.90
2023-03-11T22:34:49.858Z,3.90
2023-03-11T22:39:43.501Z,4.00
2023-03-11T22:44:36.988Z,3.90
2023-03-11T22:49:30.436Z,3.90
2023-03-11T22:54:25.347Z,3.90
2023-03-11T22:59:18.728Z,3.90
2023-03-11T23:04:12.100Z,3.80
2023-03-11T23:09:06.270Z,3.80
2023-03-11T23:14:01.006Z,3.80
2023-03-11T23:18:56.659Z,3.90
2023-03-11T23:23:50.512Z,3.90
2023-03-11T23:28:44.280Z,3.90
2023-03-11T23:33:40.072Z,3.90
2023-03-11T23:38:33.641Z,3.90
2023-03-11T23:43:27.712Z,3.80
2023-03-11T23:48:21.086Z,3.90
2023-03-11T23:53:17.253Z,3.90
2023-03-11T23:58:10.894Z,3.90
